sensor_id;sensor_type;location;lat;lon;timestamp;temperature;humidity
66096;SHT31;53861;53.422;14.530;2023-06-14T00:00:51;16.12;72.38
66096;SHT31;53861;53.422;14.530;2023-06-14T00:03:20;16.10;72.30
66096;SHT31;53861;53.422;14.530;2023-06-14T00:05:48;16.13;72.59
66096;SHT31;53861;53.422;14.530;2023-06-14T00:08:15;16.14;72.41
66096;SHT31;53861;53.422;14.530;2023-06-14T00:10:44;16.18;72.43
66096;SHT31;53861;53.422;14.530;2023-06-14T00:13:11;16.24;72.08
66096;SHT31;53861;53.422;14.530;2023-06-14T00:15:39;16.30;71.99
66096;SHT31;53861;53.422;14.530;2023-06-14T00:18:06;16.33;71.78
66096;SHT31;53861;53.422;14.530;2023-06-14T00:20:39;16.27;72.14
66096;SHT31;53861;53.422;14.530;2023-06-14T00:23:07;16.18;72.36
66096;SHT31;53861;53.422;14.530;2023-06-14T00:25:35;16.18;72.47
66096;SHT31;53861;53.422;14.530;2023-06-14T00:28:02;16.18;72.55
66096;SHT31;53861;53.422;14.530;2023-06-14T00:30:33;16.18;72.71
66096;SHT31;53861;53.422;14.530;2023-06-14T00:33:05;16.06;73.39
66096;SHT31;53861;53.422;14.530;2023-06-14T00:35:33;15.96;73.60
66096;SHT31;53861;53.422;14.530;2023-06-14T00:38:08;15.93;73.69
66096;SHT31;53861;53.422;14.530;2023-06-14T00:40:38;15.87;74.04
66096;SHT31;53861;53.422;14.530;2023-06-14T00:43:18;15.76;74.08
66096;SHT31;53861;53.422;14.530;2023-06-14T00:45:54;15.67;74.38
66096;SHT31;53861;53.422;14.530;2023-06-14T00:48:24;15.63;74.82
66096;SHT31;53861;53.422;14.530;2023-06-14T00:51:02;15.65;75.14
66096;SHT31;53861;53.422;14.530;2023-06-14T00:53:34;15.56;75.38
66096;SHT31;53861;53.422;14.530;2023-06-14T00:56:08;15.59;75.42
66096;SHT31;53861;53.422;14.530;2023-06-14T00:58:38;15.61;75.83
66096;SHT31;53861;53.422;14.530;2023-06-14T01:01:09;15.52;75.91
66096;SHT31;53861;53.422;14.530;2023-06-14T01:03:44;15.48;76.42
66096;SHT31;53861;53.422;14.530;2023-06-14T01:06:20;15.45;75.94
66096;SHT31;53861;53.422;14.530;2023-06-14T01:09:15;15.51;75.85
66096;SHT31;53861;53.422;14.530;2023-06-14T01:11:57;15.51;76.09
66096;SHT31;53861;53.422;14.530;2023-06-14T01:14:36;15.44;76.36
66096;SHT31;53861;53.422;14.530;2023-06-14T01:17:12;15.45;76.49
66096;SHT31;53861;53.422;14.530;2023-06-14T01:19:42;15.44;76.29
66096;SHT31;53861;53.422;14.530;2023-06-14T01:22:13;15.24;76.15
66096;SHT31;53861;53.422;14.530;2023-06-14T01:24:48;15.22;76.74
66096;SHT31;53861;53.422;14.530;2023-06-14T01:27:16;15.25;76.74
66096;SHT31;53861;53.422;14.530;2023-06-14T01:29:47;15.24;77.07
66096;SHT31;53861;53.422;14.530;2023-06-14T01:32:22;15.25;76.99
66096;SHT31;53861;53.422;14.530;2023-06-14T01:34:56;15.12;76.78
66096;SHT31;53861;53.422;14.530;2023-06-14T01:37:33;15.24;76.87
66096;SHT31;53861;53.422;14.530;2023-06-14T01:40:08;15.27;76.50
66096;SHT31;53861;53.422;14.530;2023-06-14T01:42:42;15.31;76.22
66096;SHT31;53861;53.422;14.530;2023-06-14T01:45:12;15.35;76.19
66096;SHT31;53861;53.422;14.530;2023-06-14T01:47:48;15.36;75.94
66096;SHT31;53861;53.422;14.530;2023-06-14T01:50:22;15.32;76.07
66096;SHT31;53861;53.422;14.530;2023-06-14T01:53:00;15.20;76.39
66096;SHT31;53861;53.422;14.530;2023-06-14T01:55:41;15.14;76.66
66096;SHT31;53861;53.422;14.530;2023-06-14T01:58:12;15.24;76.73
66096;SHT31;53861;53.422;14.530;2023-06-14T02:00:48;15.24;76.43
66096;SHT31;53861;53.422;14.530;2023-06-14T02:03:17;15.15;77.33
66096;SHT31;53861;53.422;14.530;2023-06-14T02:05:45;15.24;77.06
66096;SHT31;53861;53.422;14.530;2023-06-14T02:08:12;15.17;77.19
66096;SHT31;53861;53.422;14.530;2023-06-14T02:10:46;15.04;77.63
66096;SHT31;53861;53.422;14.530;2023-06-14T02:13:22;14.88;77.90
66096;SHT31;53861;53.422;14.530;2023-06-14T02:15:53;14.80;78.52
66096;SHT31;53861;53.422;14.530;2023-06-14T02:18:20;14.69;78.81
66096;SHT31;53861;53.422;14.530;2023-06-14T02:20:57;14.70;78.24
66096;SHT31;53861;53.422;14.530;2023-06-14T02:23:24;14.67;78.38
66096;SHT31;53861;53.422;14.530;2023-06-14T02:25:59;14.77;77.59
66096;SHT31;53861;53.422;14.530;2023-06-14T02:28:32;14.97;77.03
66096;SHT31;53861;53.422;14.530;2023-06-14T02:31:08;15.11;77.10
66096;SHT31;53861;53.422;14.530;2023-06-14T02:33:39;15.22;76.14
66096;SHT31;53861;53.422;14.530;2023-06-14T02:36:23;15.30;75.52
66096;SHT31;53861;53.422;14.530;2023-06-14T02:38:54;15.41;75.21
66096;SHT31;53861;53.422;14.530;2023-06-14T02:41:27;15.42;74.88
66096;SHT31;53861;53.422;14.530;2023-06-14T02:43:57;15.45;74.65
66096;SHT31;53861;53.422;14.530;2023-06-14T02:46:26;15.52;74.45
66096;SHT31;53861;53.422;14.530;2023-06-14T02:49:00;15.48;74.44
66096;SHT31;53861;53.422;14.530;2023-06-14T02:51:28;15.51;74.28
66096;SHT31;53861;53.422;14.530;2023-06-14T02:53:58;15.49;74.25
66096;SHT31;53861;53.422;14.530;2023-06-14T02:56:38;15.48;74.17
66096;SHT31;53861;53.422;14.530;2023-06-14T02:59:07;15.56;74.57
66096;SHT31;53861;53.422;14.530;2023-06-14T03:01:48;15.45;74.44
66096;SHT31;53861;53.422;14.530;2023-06-14T03:04:18;15.42;74.60
66096;SHT31;53861;53.422;14.530;2023-06-14T03:06:53;15.53;74.79
66096;SHT31;53861;53.422;14.530;2023-06-14T03:09:23;15.62;73.86
66096;SHT31;53861;53.422;14.530;2023-06-14T03:11:58;15.72;73.07
66096;SHT31;53861;53.422;14.530;2023-06-14T03:14:29;15.79;72.52
66096;SHT31;53861;53.422;14.530;2023-06-14T03:16:59;15.89;72.56
66096;SHT31;53861;53.422;14.530;2023-06-14T03:19:31;15.97;72.20
66096;SHT31;53861;53.422;14.530;2023-06-14T03:22:03;16.04;71.11
66096;SHT31;53861;53.422;14.530;2023-06-14T03:24:34;16.09;71.05
66096;SHT31;53861;53.422;14.530;2023-06-14T03:27:08;16.13;71.13
66096;SHT31;53861;53.422;14.530;2023-06-14T03:29:38;16.23;70.55
66096;SHT31;53861;53.422;14.530;2023-06-14T03:32:08;16.16;70.57
66096;SHT31;53861;53.422;14.530;2023-06-14T03:34:38;16.16;71.45
66096;SHT31;53861;53.422;14.530;2023-06-14T03:37:08;16.16;70.76
66096;SHT31;53861;53.422;14.530;2023-06-14T03:39:43;16.26;70.49
66096;SHT31;53861;53.422;14.530;2023-06-14T03:42:17;16.41;70.08
66096;SHT31;53861;53.422;14.530;2023-06-14T03:44:47;16.46;69.41
66096;SHT31;53861;53.422;14.530;2023-06-14T03:47:17;16.47;69.21
66096;SHT31;53861;53.422;14.530;2023-06-14T03:49:46;16.54;68.77
66096;SHT31;53861;53.422;14.530;2023-06-14T03:52:14;16.68;68.50
66096;SHT31;53861;53.422;14.530;2023-06-14T03:54:43;16.75;68.62
66096;SHT31;53861;53.422;14.530;2023-06-14T03:57:16;16.67;68.90
66096;SHT31;53861;53.422;14.530;2023-06-14T03:59:47;16.77;68.93
66096;SHT31;53861;53.422;14.530;2023-06-14T04:02:37;16.78;69.15
66096;SHT31;53861;53.422;14.530;2023-06-14T04:05:08;16.92;67.02
66096;SHT31;53861;53.422;14.530;2023-06-14T04:07:38;17.08;66.49
66096;SHT31;53861;53.422;14.530;2023-06-14T04:10:12;17.01;66.38
66096;SHT31;53861;53.422;14.530;2023-06-14T04:12:53;16.99;66.69
66096;SHT31;53861;53.422;14.530;2023-06-14T04:15:22;16.91;67.26
66096;SHT31;53861;53.422;14.530;2023-06-14T04:17:53;16.85;68.10
66096;SHT31;53861;53.422;14.530;2023-06-14T04:20:27;16.99;67.44
66096;SHT31;53861;53.422;14.530;2023-06-14T04:22:57;17.08;67.47
66096;SHT31;53861;53.422;14.530;2023-06-14T04:25:33;17.02;67.46
66096;SHT31;53861;53.422;14.530;2023-06-14T04:28:04;17.07;67.20
66096;SHT31;53861;53.422;14.530;2023-06-14T04:30:32;17.22;67.77
66096;SHT31;53861;53.422;14.530;2023-06-14T04:33:07;17.47;66.66
66096;SHT31;53861;53.422;14.530;2023-06-14T04:35:44;17.59;66.02
66096;SHT31;53861;53.422;14.530;2023-06-14T04:38:13;17.53;66.14
66096;SHT31;53861;53.422;14.530;2023-06-14T04:40:44;17.46;66.58
66096;SHT31;53861;53.422;14.530;2023-06-14T04:43:23;17.46;66.63
66096;SHT31;53861;53.422;14.530;2023-06-14T04:45:51;17.53;67.76
66096;SHT31;53861;53.422;14.530;2023-06-14T04:48:23;17.57;66.26
66096;SHT31;53861;53.422;14.530;2023-06-14T04:50:53;17.46;66.53
66096;SHT31;53861;53.422;14.530;2023-06-14T04:53:22;17.46;66.61
66096;SHT31;53861;53.422;14.530;2023-06-14T04:56:03;17.32;65.95
66096;SHT31;53861;53.422;14.530;2023-06-14T04:58:34;17.33;66.03
66096;SHT31;53861;53.422;14.530;2023-06-14T05:01:22;17.29;66.16
66096;SHT31;53861;53.422;14.530;2023-06-14T05:03:52;17.14;67.21
66096;SHT31;53861;53.422;14.530;2023-06-14T05:06:29;17.05;66.52
66096;SHT31;53861;53.422;14.530;2023-06-14T05:09:02;17.25;65.57
66096;SHT31;53861;53.422;14.530;2023-06-14T05:11:35;17.33;66.24
66096;SHT31;53861;53.422;14.530;2023-06-14T05:14:13;17.28;65.61
66096;SHT31;53861;53.422;14.530;2023-06-14T05:16:43;17.40;63.90
66096;SHT31;53861;53.422;14.530;2023-06-14T05:19:13;17.45;64.15
66096;SHT31;53861;53.422;14.530;2023-06-14T05:21:53;17.46;63.83
66096;SHT31;53861;53.422;14.530;2023-06-14T05:24:22;17.43;62.90
66096;SHT31;53861;53.422;14.530;2023-06-14T05:27:00;17.42;63.36
66096;SHT31;53861;53.422;14.530;2023-06-14T05:29:33;17.56;62.82
66096;SHT31;53861;53.422;14.530;2023-06-14T05:32:10;17.63;62.18
66096;SHT31;53861;53.422;14.530;2023-06-14T05:34:43;17.80;61.55
66096;SHT31;53861;53.422;14.530;2023-06-14T05:37:21;18.10;61.38
66096;SHT31;53861;53.422;14.530;2023-06-14T05:40:02;18.27;61.48
66096;SHT31;53861;53.422;14.530;2023-06-14T05:42:39;18.42;59.81
66096;SHT31;53861;53.422;14.530;2023-06-14T05:45:13;18.65;59.39
66096;SHT31;53861;53.422;14.530;2023-06-14T05:47:43;18.91;59.62
66096;SHT31;53861;53.422;14.530;2023-06-14T05:50:13;19.00;58.76
66096;SHT31;53861;53.422;14.530;2023-06-14T05:52:43;19.06;58.11
66096;SHT31;53861;53.422;14.530;2023-06-14T05:55:17;19.33;57.78
66096;SHT31;53861;53.422;14.530;2023-06-14T05:57:53;19.53;57.64
66096;SHT31;53861;53.422;14.530;2023-06-14T06:00:27;19.49;57.85
66096;SHT31;53861;53.422;14.530;2023-06-14T06:02:57;19.43;58.39
66096;SHT31;53861;53.422;14.530;2023-06-14T06:05:28;19.66;60.78
66096;SHT31;53861;53.422;14.530;2023-06-14T06:07:57;19.98;57.40
66096;SHT31;53861;53.422;14.530;2023-06-14T06:10:27;20.05;56.53
66096;SHT31;53861;53.422;14.530;2023-06-14T06:13:02;20.57;56.41
66096;SHT31;53861;53.422;14.530;2023-06-14T06:15:54;20.91;55.75
66096;SHT31;53861;53.422;14.530;2023-06-14T06:18:26;20.40;55.33
66096;SHT31;53861;53.422;14.530;2023-06-14T06:21:12;20.62;55.69
66096;SHT31;53861;53.422;14.530;2023-06-14T06:23:48;20.86;55.39
66096;SHT31;53861;53.422;14.530;2023-06-14T06:26:32;20.89;55.42
66096;SHT31;53861;53.422;14.530;2023-06-14T06:28:59;21.12;53.83
66096;SHT31;53861;53.422;14.530;2023-06-14T06:31:30;21.48;53.85
66096;SHT31;53861;53.422;14.530;2023-06-14T06:33:58;21.27;53.80
66096;SHT31;53861;53.422;14.530;2023-06-14T06:36:32;21.41;55.90
66096;SHT31;53861;53.422;14.530;2023-06-14T06:39:01;21.74;53.09
66096;SHT31;53861;53.422;14.530;2023-06-14T06:41:38;21.59;52.36
66096;SHT31;53861;53.422;14.530;2023-06-14T06:44:12;21.91;51.91
66096;SHT31;53861;53.422;14.530;2023-06-14T06:46:45;22.28;51.46
66096;SHT31;53861;53.422;14.530;2023-06-14T06:49:21;22.49;50.35
66096;SHT31;53861;53.422;14.530;2023-06-14T06:52:04;22.44;50.74
66096;SHT31;53861;53.422;14.530;2023-06-14T06:54:32;23.05;49.39
66096;SHT31;53861;53.422;14.530;2023-06-14T06:57:05;23.48;49.33
66096;SHT31;53861;53.422;14.530;2023-06-14T07:02:30;23.15;47.01
66096;SHT31;53861;53.422;14.530;2023-06-14T07:05:03;23.31;46.41
66096;SHT31;53861;53.422;14.530;2023-06-14T07:07:32;23.00;47.70
66096;SHT31;53861;53.422;14.530;2023-06-14T07:10:02;23.42;48.28
66096;SHT31;53861;53.422;14.530;2023-06-14T07:12:43;23.12;48.53
66096;SHT31;53861;53.422;14.530;2023-06-14T07:15:22;22.67;49.71
66096;SHT31;53861;53.422;14.530;2023-06-14T07:17:57;22.86;49.48
66096;SHT31;53861;53.422;14.530;2023-06-14T07:20:28;23.56;47.90
66096;SHT31;53861;53.422;14.530;2023-06-14T07:23:02;24.00;47.52
66096;SHT31;53861;53.422;14.530;2023-06-14T07:25:36;23.95;47.18
66096;SHT31;53861;53.422;14.530;2023-06-14T07:28:06;24.17;46.18
66096;SHT31;53861;53.422;14.530;2023-06-14T07:30:34;24.94;45.08
66096;SHT31;53861;53.422;14.530;2023-06-14T07:33:14;25.02;43.51
66096;SHT31;53861;53.422;14.530;2023-06-14T07:35:50;25.74;41.62
66096;SHT31;53861;53.422;14.530;2023-06-14T07:38:23;26.43;44.40
66096;SHT31;53861;53.422;14.530;2023-06-14T07:40:53;26.54;39.68
66096;SHT31;53861;53.422;14.530;2023-06-14T07:43:32;27.39;43.71
66096;SHT31;53861;53.422;14.530;2023-06-14T07:46:02;27.77;38.85
66096;SHT31;53861;53.422;14.530;2023-06-14T07:48:42;27.98;37.24
66096;SHT31;53861;53.422;14.530;2023-06-14T07:51:12;27.20;38.34
66096;SHT31;53861;53.422;14.530;2023-06-14T07:53:44;27.86;41.80
66096;SHT31;53861;53.422;14.530;2023-06-14T07:56:18;27.64;38.55
66096;SHT31;53861;53.422;14.530;2023-06-14T07:58:51;28.59;37.86
66096;SHT31;53861;53.422;14.530;2023-06-14T08:01:22;28.34;37.19
66096;SHT31;53861;53.422;14.530;2023-06-14T08:03:52;28.10;36.87
66096;SHT31;53861;53.422;14.530;2023-06-14T08:06:23;27.56;35.96
66096;SHT31;53861;53.422;14.530;2023-06-14T08:08:52;27.64;37.71
66096;SHT31;53861;53.422;14.530;2023-06-14T08:11:22;27.53;38.61
66096;SHT31;53861;53.422;14.530;2023-06-14T08:16:38;27.50;36.23
66096;SHT31;53861;53.422;14.530;2023-06-14T08:19:21;26.88;36.34
66096;SHT31;53861;53.422;14.530;2023-06-14T08:21:51;27.35;40.64
66096;SHT31;53861;53.422;14.530;2023-06-14T08:24:23;27.46;37.64
66096;SHT31;53861;53.422;14.530;2023-06-14T08:26:53;28.25;38.45
66096;SHT31;53861;53.422;14.530;2023-06-14T08:29:31;27.94;36.43
66096;SHT31;53861;53.422;14.530;2023-06-14T08:32:08;28.02;37.33
66096;SHT31;53861;53.422;14.530;2023-06-14T08:34:43;28.00;37.31
66096;SHT31;53861;53.422;14.530;2023-06-14T08:37:13;27.76;36.80
66096;SHT31;53861;53.422;14.530;2023-06-14T08:39:49;28.18;37.00
66096;SHT31;53861;53.422;14.530;2023-06-14T08:42:48;28.44;38.88
66096;SHT31;53861;53.422;14.530;2023-06-14T08:45:27;28.82;35.97
66096;SHT31;53861;53.422;14.530;2023-06-14T08:47:54;28.31;36.53
66096;SHT31;53861;53.422;14.530;2023-06-14T08:50:27;28.24;37.82
66096;SHT31;53861;53.422;14.530;2023-06-14T08:52:57;28.96;42.84
66096;SHT31;53861;53.422;14.530;2023-06-14T08:55:27;29.29;38.96
66096;SHT31;53861;53.422;14.530;2023-06-14T08:57:55;28.80;36.64
66096;SHT31;53861;53.422;14.530;2023-06-14T09:00:24;28.69;38.18
66096;SHT31;53861;53.422;14.530;2023-06-14T09:02:52;28.45;36.47
66096;SHT31;53861;53.422;14.530;2023-06-14T09:05:24;29.19;37.42
66096;SHT31;53861;53.422;14.530;2023-06-14T09:07:53;29.23;36.18
66096;SHT31;53861;53.422;14.530;2023-06-14T09:10:21;29.17;35.80
66096;SHT31;53861;53.422;14.530;2023-06-14T09:12:48;28.83;36.70
66096;SHT31;53861;53.422;14.530;2023-06-14T09:15:16;27.90;37.55
66096;SHT31;53861;53.422;14.530;2023-06-14T09:17:43;27.13;38.99
66096;SHT31;53861;53.422;14.530;2023-06-14T09:20:10;27.25;39.10
66096;SHT31;53861;53.422;14.530;2023-06-14T09:22:39;27.32;38.43
66096;SHT31;53861;53.422;14.530;2023-06-14T09:25:09;27.33;39.21
66096;SHT31;53861;53.422;14.530;2023-06-14T09:27:37;26.94;39.71
66096;SHT31;53861;53.422;14.530;2023-06-14T09:30:09;27.51;42.36
66096;SHT31;53861;53.422;14.530;2023-06-14T09:32:37;27.23;40.24
66096;SHT31;53861;53.422;14.530;2023-06-14T09:35:06;27.94;38.82
66096;SHT31;53861;53.422;14.530;2023-06-14T09:37:35;27.76;38.13
66096;SHT31;53861;53.422;14.530;2023-06-14T09:40:04;27.54;39.01
66096;SHT31;53861;53.422;14.530;2023-06-14T09:42:34;27.71;41.20
66096;SHT31;53861;53.422;14.530;2023-06-14T09:45:03;29.41;36.53
66096;SHT31;53861;53.422;14.530;2023-06-14T09:47:31;30.42;36.07
66096;SHT31;53861;53.422;14.530;2023-06-14T09:49:59;30.94;34.64
66096;SHT31;53861;53.422;14.530;2023-06-14T09:52:27;30.29;34.80
66096;SHT31;53861;53.422;14.530;2023-06-14T09:54:56;30.83;36.33
66096;SHT31;53861;53.422;14.530;2023-06-14T09:57:27;30.18;34.48
66096;SHT31;53861;53.422;14.530;2023-06-14T09:59:57;30.14;34.90
66096;SHT31;53861;53.422;14.530;2023-06-14T10:02:29;30.66;36.04
66096;SHT31;53861;53.422;14.530;2023-06-14T10:05:02;30.40;34.88
66096;SHT31;53861;53.422;14.530;2023-06-14T10:07:35;30.86;35.34
66096;SHT31;53861;53.422;14.530;2023-06-14T10:10:06;31.16;36.18
66096;SHT31;53861;53.422;14.530;2023-06-14T10:12:34;31.38;33.64
66096;SHT31;53861;53.422;14.530;2023-06-14T10:15:03;30.57;34.39
66096;SHT31;53861;53.422;14.530;2023-06-14T10:17:47;30.42;37.19
66096;SHT31;53861;53.422;14.530;2023-06-14T10:20:23;29.61;35.40
66096;SHT31;53861;53.422;14.530;2023-06-14T10:22:58;30.19;36.78
66096;SHT31;53861;53.422;14.530;2023-06-14T10:25:27;30.79;34.30
66096;SHT31;53861;53.422;14.530;2023-06-14T10:28:02;29.75;35.51
66096;SHT31;53861;53.422;14.530;2023-06-14T10:30:33;29.53;35.55
66096;SHT31;53861;53.422;14.530;2023-06-14T10:33:04;29.00;36.22
66096;SHT31;53861;53.422;14.530;2023-06-14T10:35:32;29.00;36.12
66096;SHT31;53861;53.422;14.530;2023-06-14T10:38:07;29.12;36.13
66096;SHT31;53861;53.422;14.530;2023-06-14T10:40:35;30.51;36.39
66096;SHT31;53861;53.422;14.530;2023-06-14T10:43:21;32.33;32.62
66096;SHT31;53861;53.422;14.530;2023-06-14T10:46:16;31.10;34.08
66096;SHT31;53861;53.422;14.530;2023-06-14T10:48:44;32.10;34.06
66096;SHT31;53861;53.422;14.530;2023-06-14T10:51:16;33.07;34.08
66096;SHT31;53861;53.422;14.530;2023-06-14T10:53:46;33.15;31.40
66096;SHT31;53861;53.422;14.530;2023-06-14T10:56:26;32.49;33.23
66096;SHT31;53861;53.422;14.530;2023-06-14T10:58:54;32.56;32.95
66096;SHT31;53861;53.422;14.530;2023-06-14T11:01:36;32.88;31.09
66096;SHT31;53861;53.422;14.530;2023-06-14T11:04:07;32.16;31.94
66096;SHT31;53861;53.422;14.530;2023-06-14T11:06:46;31.72;31.77
66096;SHT31;53861;53.422;14.530;2023-06-14T11:12:17;32.44;33.90
66096;SHT31;53861;53.422;14.530;2023-06-14T11:14:46;33.66;34.55
66096;SHT31;53861;53.422;14.530;2023-06-14T11:17:15;34.17;31.48
66096;SHT31;53861;53.422;14.530;2023-06-14T11:19:42;33.89;30.88
66096;SHT31;53861;53.422;14.530;2023-06-14T11:22:10;33.62;30.43
66096;SHT31;53861;53.422;14.530;2023-06-14T11:24:40;32.61;31.45
66096;SHT31;53861;53.422;14.530;2023-06-14T11:27:07;31.72;32.40
66096;SHT31;53861;53.422;14.530;2023-06-14T11:29:35;32.13;31.93
66096;SHT31;53861;53.422;14.530;2023-06-14T11:32:02;31.65;32.22
66096;SHT31;53861;53.422;14.530;2023-06-14T11:34:34;31.49;33.03
66096;SHT31;53861;53.422;14.530;2023-06-14T11:37:01;31.82;33.00
66096;SHT31;53861;53.422;14.530;2023-06-14T11:39:31;30.18;34.40
66096;SHT31;53861;53.422;14.530;2023-06-14T11:41:59;30.47;34.24
66096;SHT31;53861;53.422;14.530;2023-06-14T11:44:27;30.62;33.21
66096;SHT31;53861;53.422;14.530;2023-06-14T11:46:56;31.28;33.97
66096;SHT31;53861;53.422;14.530;2023-06-14T11:49:24;31.34;32.22
66096;SHT31;53861;53.422;14.530;2023-06-14T11:51:55;30.40;32.61
66096;SHT31;53861;53.422;14.530;2023-06-14T11:54:22;30.15;32.59
66096;SHT31;53861;53.422;14.530;2023-06-14T11:56:49;30.42;34.19
66096;SHT31;53861;53.422;14.530;2023-06-14T11:59:17;30.53;36.29
66096;SHT31;53861;53.422;14.530;2023-06-14T12:01:44;30.72;34.86
66096;SHT31;53861;53.422;14.530;2023-06-14T12:04:12;30.72;31.30
66096;SHT31;53861;53.422;14.530;2023-06-14T12:06:39;30.36;32.77
66096;SHT31;53861;53.422;14.530;2023-06-14T12:09:08;30.73;35.76
66096;SHT31;53861;53.422;14.530;2023-06-14T12:11:39;30.59;35.62
66096;SHT31;53861;53.422;14.530;2023-06-14T12:14:08;29.65;35.42
66096;SHT31;53861;53.422;14.530;2023-06-14T12:16:38;29.49;37.37
66096;SHT31;53861;53.422;14.530;2023-06-14T12:19:12;28.58;35.20
66096;SHT31;53861;53.422;14.530;2023-06-14T12:21:39;27.70;38.00
66096;SHT31;53861;53.422;14.530;2023-06-14T12:24:09;27.13;38.64
66096;SHT31;53861;53.422;14.530;2023-06-14T12:26:38;26.98;39.93
66096;SHT31;53861;53.422;14.530;2023-06-14T12:29:07;27.46;39.20
66096;SHT31;53861;53.422;14.530;2023-06-14T12:31:34;28.25;37.04
66096;SHT31;53861;53.422;14.530;2023-06-14T12:34:02;28.07;37.19
66096;SHT31;53861;53.422;14.530;2023-06-14T12:36:29;28.51;40.11
66096;SHT31;53861;53.422;14.530;2023-06-14T12:38:58;28.15;37.30
66096;SHT31;53861;53.422;14.530;2023-06-14T12:41:26;27.97;38.01
66096;SHT31;53861;53.422;14.530;2023-06-14T12:43:54;27.93;38.01
66096;SHT31;53861;53.422;14.530;2023-06-14T12:46:21;27.60;37.02
66096;SHT31;53861;53.422;14.530;2023-06-14T12:48:48;27.03;38.77
66096;SHT31;53861;53.422;14.530;2023-06-14T12:51:16;26.92;38.98
66096;SHT31;53861;53.422;14.530;2023-06-14T12:53:43;26.62;38.99
66096;SHT31;53861;53.422;14.530;2023-06-14T12:56:11;26.51;39.43
66096;SHT31;53861;53.422;14.530;2023-06-14T12:58:39;26.49;38.65
66096;SHT31;53861;53.422;14.530;2023-06-14T13:01:06;26.35;39.43
66096;SHT31;53861;53.422;14.530;2023-06-14T13:03:34;26.13;38.69
66096;SHT31;53861;53.422;14.530;2023-06-14T13:06:01;26.18;40.95
66096;SHT31;53861;53.422;14.530;2023-06-14T13:08:30;25.92;40.57
66096;SHT31;53861;53.422;14.530;2023-06-14T13:10:57;25.72;41.05
66096;SHT31;53861;53.422;14.530;2023-06-14T13:13:24;25.72;41.29
66096;SHT31;53861;53.422;14.530;2023-06-14T13:15:53;25.74;42.04
66096;SHT31;53861;53.422;14.530;2023-06-14T13:18:20;25.59;41.80
66096;SHT31;53861;53.422;14.530;2023-06-14T13:20:47;25.47;42.33
66096;SHT31;53861;53.422;14.530;2023-06-14T13:23:15;25.26;42.30
66096;SHT31;53861;53.422;14.530;2023-06-14T13:25:43;25.23;42.90
66096;SHT31;53861;53.422;14.530;2023-06-14T13:28:10;25.07;42.90
66096;SHT31;53861;53.422;14.530;2023-06-14T13:30:37;25.02;43.89
66096;SHT31;53861;53.422;14.530;2023-06-14T13:33:06;25.05;43.91
66096;SHT31;53861;53.422;14.530;2023-06-14T13:35:33;25.10;44.10
66096;SHT31;53861;53.422;14.530;2023-06-14T13:38:00;25.19;44.18
66096;SHT31;53861;53.422;14.530;2023-06-14T13:40:28;25.15;43.94
66096;SHT31;53861;53.422;14.530;2023-06-14T13:42:55;25.12;44.32
66096;SHT31;53861;53.422;14.530;2023-06-14T13:45:23;24.95;45.57
66096;SHT31;53861;53.422;14.530;2023-06-14T13:47:50;24.85;45.01
66096;SHT31;53861;53.422;14.530;2023-06-14T13:50:19;24.82;45.21
66096;SHT31;53861;53.422;14.530;2023-06-14T13:52:46;24.87;45.16
66096;SHT31;53861;53.422;14.530;2023-06-14T13:55:13;24.78;45.07
66096;SHT31;53861;53.422;14.530;2023-06-14T13:57:41;24.77;44.51
66096;SHT31;53861;53.422;14.530;2023-06-14T14:00:09;24.60;44.75
66096;SHT31;53861;53.422;14.530;2023-06-14T14:02:37;24.61;44.79
66096;SHT31;53861;53.422;14.530;2023-06-14T14:05:06;24.47;45.44
66096;SHT31;53861;53.422;14.530;2023-06-14T14:07:34;24.60;45.53
66096;SHT31;53861;53.422;14.530;2023-06-14T14:10:02;24.53;46.47
66096;SHT31;53861;53.422;14.530;2023-06-14T14:12:29;24.46;46.57
66096;SHT31;53861;53.422;14.530;2023-06-14T14:14:57;24.49;47.10
66096;SHT31;53861;53.422;14.530;2023-06-14T14:17:24;24.37;47.45
66096;SHT31;53861;53.422;14.530;2023-06-14T14:19:51;24.37;47.70
66096;SHT31;53861;53.422;14.530;2023-06-14T14:22:19;24.39;46.83
66096;SHT31;53861;53.422;14.530;2023-06-14T14:24:47;24.33;47.43
66096;SHT31;53861;53.422;14.530;2023-06-14T14:27:14;24.34;47.86
66096;SHT31;53861;53.422;14.530;2023-06-14T14:29:42;24.31;46.42
66096;SHT31;53861;53.422;14.530;2023-06-14T14:32:09;24.26;45.23
66096;SHT31;53861;53.422;14.530;2023-06-14T14:34:40;24.33;44.39
66096;SHT31;53861;53.422;14.530;2023-06-14T14:37:07;24.06;45.14
66096;SHT31;53861;53.422;14.530;2023-06-14T14:39:36;24.00;46.08
66096;SHT31;53861;53.422;14.530;2023-06-14T14:42:06;24.16;45.41
66096;SHT31;53861;53.422;14.530;2023-06-14T14:44:33;24.14;45.68
66096;SHT31;53861;53.422;14.530;2023-06-14T14:47:01;24.10;45.57
66096;SHT31;53861;53.422;14.530;2023-06-14T14:49:28;24.07;46.14
66096;SHT31;53861;53.422;14.530;2023-06-14T14:51:56;24.03;46.43
66096;SHT31;53861;53.422;14.530;2023-06-14T14:54:23;23.92;46.48
66096;SHT31;53861;53.422;14.530;2023-06-14T14:56:51;24.06;46.77
66096;SHT31;53861;53.422;14.530;2023-06-14T14:59:20;24.02;46.96
66096;SHT31;53861;53.422;14.530;2023-06-14T15:01:48;23.88;47.52
66096;SHT31;53861;53.422;14.530;2023-06-14T15:04:16;24.00;46.35
66096;SHT31;53861;53.422;14.530;2023-06-14T15:06:44;23.85;46.80
66096;SHT31;53861;53.422;14.530;2023-06-14T15:09:11;23.95;46.94
66096;SHT31;53861;53.422;14.530;2023-06-14T15:11:38;24.12;45.64
66096;SHT31;53861;53.422;14.530;2023-06-14T15:14:05;24.21;45.93
66096;SHT31;53861;53.422;14.530;2023-06-14T15:16:34;24.21;45.81
66096;SHT31;53861;53.422;14.530;2023-06-14T15:19:01;24.27;44.59
66096;SHT31;53861;53.422;14.530;2023-06-14T15:21:29;24.19;45.09
66096;SHT31;53861;53.422;14.530;2023-06-14T15:23:56;24.23;44.93
66096;SHT31;53861;53.422;14.530;2023-06-14T15:26:23;24.36;44.85
66096;SHT31;53861;53.422;14.530;2023-06-14T15:28:50;24.24;44.30
66096;SHT31;53861;53.422;14.530;2023-06-14T15:31:18;24.27;44.62
66096;SHT31;53861;53.422;14.530;2023-06-14T15:33:46;24.57;43.61
66096;SHT31;53861;53.422;14.530;2023-06-14T15:36:14;24.88;44.30
66096;SHT31;53861;53.422;14.530;2023-06-14T15:38:41;24.98;43.62
66096;SHT31;53861;53.422;14.530;2023-06-14T15:41:09;25.35;43.90
66096;SHT31;53861;53.422;14.530;2023-06-14T15:43:36;25.33;42.88
66096;SHT31;53861;53.422;14.530;2023-06-14T15:46:03;25.52;43.42
66096;SHT31;53861;53.422;14.530;2023-06-14T15:48:31;25.56;43.16